»·PEaware :: UAL1973 KSFO-KSAN

UAL1973 :: KSFO-KSAN

FLIGHT INFORMATION

Flight Status: Arrived
Operator:
United Airlines
More flights by this operator :: More flights under this callsign
Pilot: Kent M. (15083)
Aircraft: BOEING 737-800
(B738)
More flights by this aircraft type
Origin: KSFO San Francisco Intl
United States
Destination: KSAN San Diego Intl-Lindbergh
United States
More flights between these airports :: More routes between these airports
Route: +OFFSH2 MCKEY LAX COMIX2
File this flight plan on PilotEdge
Remarks:
Altitude:
(Current/Filed)
32,000ft
Speed:
(Current/Filed)
460kts
Departed: 02-Feb-20 08:14 AM
Arrived: 02-Feb-20 09:28 AM
Distance/Time
Traveled:
387nm/1:14
Distance/Time
To Go:
Arrived

Flight Plot

Page will automatically refresh every two minutes.

Flight plan parsing failed; only flown route is shown


Map Options




Map Legend


Flown Route
Filed Route
Departure Airport
Arrival Airport
Navaid (VOR, NDB)
Fix

Horizontal Profiles

Position Reports

Time Latitude Longitude Heading Altitude Ground
Speed
02-Feb-20 07:03 37.619195 -122.383522 290 19ft 0kts
02-Feb-20 07:04 37.619195 -122.383522 290 19ft 0kts
02-Feb-20 07:05 37.619195 -122.383522 290 19ft 0kts
02-Feb-20 07:06 37.619195 -122.383522 290 19ft 0kts
02-Feb-20 07:07 37.619195 -122.383522 290 19ft 0kts
02-Feb-20 07:08 37.619195 -122.383522 290 19ft 0kts
02-Feb-20 07:09 37.619195 -122.383522 290 19ft 0kts
02-Feb-20 07:10 37.619195 -122.383522 290 19ft 0kts
02-Feb-20 07:11 37.619195 -122.383522 290 19ft 0kts
02-Feb-20 07:12 37.619195 -122.383522 290 19ft 0kts
02-Feb-20 07:13 37.619195 -122.383522 290 19ft 0kts
02-Feb-20 07:14 37.619195 -122.383522 290 19ft 0kts
02-Feb-20 07:15 37.619195 -122.383522 290 19ft 0kts
02-Feb-20 07:16 37.619195 -122.383522 290 19ft 0kts
02-Feb-20 07:17 37.619195 -122.383522 290 19ft 0kts
02-Feb-20 07:18 37.619195 -122.383522 290 19ft 0kts
02-Feb-20 07:19 37.619195 -122.383522 290 19ft 0kts
02-Feb-20 07:20 37.619195 -122.383522 290 19ft 0kts
02-Feb-20 07:21 37.619195 -122.383522 290 19ft 0kts
02-Feb-20 07:22 37.619195 -122.383522 290 19ft 0kts
02-Feb-20 07:23 37.619195 -122.383522 290 19ft 0kts
02-Feb-20 07:24 37.619195 -122.383522 290 19ft 0kts
02-Feb-20 07:25 37.619195 -122.383522 290 19ft 0kts
02-Feb-20 07:26 37.619195 -122.383522 290 19ft 0kts
02-Feb-20 07:27 37.619195 -122.383522 290 19ft 0kts
02-Feb-20 07:28 37.619195 -122.383522 290 19ft 0kts
02-Feb-20 07:29 37.619195 -122.383522 290 19ft 0kts
02-Feb-20 07:30 37.619195 -122.383522 290 19ft 0kts
02-Feb-20 07:31 37.619195 -122.383522 290 19ft 0kts
02-Feb-20 07:32 37.619195 -122.383522 290 19ft 0kts
02-Feb-20 07:33 37.619195 -122.383522 290 19ft 0kts
02-Feb-20 07:34 37.619195 -122.383522 290 19ft 0kts
02-Feb-20 07:35 37.619195 -122.383522 290 19ft 0kts
02-Feb-20 07:36 37.619195 -122.383522 290 19ft 0kts
02-Feb-20 07:37 37.619195 -122.383522 290 19ft 0kts
02-Feb-20 07:38 37.619195 -122.383522 290 19ft 0kts
02-Feb-20 07:39 37.619195 -122.383522 290 19ft 0kts
02-Feb-20 07:40 37.619195 -122.383522 290 19ft 0kts
02-Feb-20 07:41 37.619195 -122.383522 290 19ft 0kts
02-Feb-20 07:42 37.619195 -122.383522 290 19ft 0kts
02-Feb-20 07:43 37.619195 -122.383522 290 19ft 0kts
02-Feb-20 07:44 37.619195 -122.383522 290 19ft 0kts
02-Feb-20 07:45 37.619195 -122.383522 290 19ft 0kts
02-Feb-20 07:46 37.619195 -122.383522 290 19ft 0kts
02-Feb-20 07:47 37.619195 -122.383522 290 19ft 0kts
02-Feb-20 07:48 37.619195 -122.383522 290 19ft 0kts
02-Feb-20 07:49 37.619195 -122.383522 290 19ft 0kts
02-Feb-20 07:50 37.619195 -122.383522 290 19ft 0kts
02-Feb-20 07:51 37.619195 -122.383522 290 19ft 0kts
02-Feb-20 07:52 37.619195 -122.383522 290 19ft 0kts
02-Feb-20 07:53 37.619195 -122.383522 290 19ft 0kts
02-Feb-20 07:54 37.619195 -122.383522 290 19ft 0kts
02-Feb-20 07:55 37.619195 -122.383522 290 19ft 0kts
02-Feb-20 07:56 37.619195 -122.383522 290 19ft 0kts
02-Feb-20 07:57 37.619195 -122.383522 290 19ft 0kts
02-Feb-20 07:58 37.619195 -122.383522 290 19ft 0kts
02-Feb-20 07:59 37.619195 -122.383522 290 19ft 0kts
02-Feb-20 08:00 37.619195 -122.383522 290 19ft 0kts
02-Feb-20 08:01 37.619195 -122.383522 290 19ft 0kts
02-Feb-20 08:02 37.619195 -122.383522 290 19ft 0kts
02-Feb-20 08:03 37.619195 -122.383522 290 19ft 0kts
02-Feb-20 08:04 37.619195 -122.383521 290 19ft 0kts
02-Feb-20 08:05 37.619037 -122.382996 317 19ft 1kts
02-Feb-20 08:06 37.618804 -122.383000 29 19ft 0kts
02-Feb-20 08:07 37.618804 -122.383000 29 19ft 0kts
02-Feb-20 08:08 37.618804 -122.383000 29 19ft 0kts
02-Feb-20 08:09 37.619564 -122.382363 58 19ft 10kts
02-Feb-20 08:10 37.617339 -122.375592 112 20ft 29kts
02-Feb-20 08:11 37.613037 -122.366321 118 19ft 31kts
02-Feb-20 08:12 37.610621 -122.359417 57 21ft 14kts
02-Feb-20 08:13 37.621907 -122.380160 299 931ft 160kts
02-Feb-20 08:14 37.647140 -122.433773 298 4237ft 216kts
02-Feb-20 08:15 37.671484 -122.509458 266 8112ft 254kts
02-Feb-20 08:16 37.617675 -122.565176 215 11737ft 284kts
02-Feb-20 08:17 37.548521 -122.623288 219 14931ft 307kts
02-Feb-20 08:18 37.475384 -122.679784 202 18276ft 325kts
02-Feb-20 08:19 37.379980 -122.676135 177 20962ft 367kts
02-Feb-20 08:20 37.277533 -122.650417 177 23419ft 384kts
02-Feb-20 08:21 37.170723 -122.623743 177 25603ft 400kts
02-Feb-20 08:22 37.060009 -122.596170 177 27594ft 413kts
02-Feb-20 08:23 36.945670 -122.567699 176 29378ft 426kts
02-Feb-20 08:24 36.829799 -122.537426 176 31169ft 427kts
02-Feb-20 08:25 36.713489 -122.507246 176 31204ft 428kts
02-Feb-20 08:26 36.596885 -122.477092 176 31199ft 429kts
02-Feb-20 08:27 36.479922 -122.445772 170 31198ft 435kts
02-Feb-20 08:28 36.375366 -122.362208 138 31202ft 468kts
02-Feb-20 08:29 36.290304 -122.239133 136 31188ft 470kts
02-Feb-20 08:30 36.205478 -122.115652 136 31189ft 469kts
02-Feb-20 08:31 36.120678 -121.992685 136 31190ft 469kts
02-Feb-20 08:32 36.035802 -121.870039 136 31191ft 469kts
02-Feb-20 08:34 35.951015 -121.747958 136 31495ft 466kts
02-Feb-20 08:35 35.867030 -121.627505 136 32531ft 471kts
02-Feb-20 08:36 35.781715 -121.505534 136 34490ft 468kts
02-Feb-20 08:37 35.696428 -121.384076 135 35153ft 467kts
02-Feb-20 08:38 35.612348 -121.264701 136 35143ft 463kts
02-Feb-20 08:39 35.527480 -121.144642 136 35142ft 464kts
02-Feb-20 08:40 35.447474 -121.020049 128 35136ft 467kts
02-Feb-20 08:41 35.373414 -120.888735 128 35127ft 466kts
02-Feb-20 08:42 35.299177 -120.757732 128 35119ft 466kts
02-Feb-20 08:43 35.225232 -120.627736 128 35120ft 466kts
02-Feb-20 08:44 35.150883 -120.497497 128 35121ft 466kts
02-Feb-20 08:45 35.076463 -120.367646 128 35124ft 465kts
02-Feb-20 08:46 35.002081 -120.238246 128 35114ft 465kts
02-Feb-20 08:47 34.927257 -120.108608 128 35120ft 465kts
02-Feb-20 08:48 34.853897 -119.982000 127 35128ft 463kts
02-Feb-20 08:49 34.779724 -119.854428 127 35103ft 461kts
02-Feb-20 08:50 34.705051 -119.726458 127 35063ft 461kts
02-Feb-20 08:50 34.643026 -119.620511 127 35084ft 462kts
02-Feb-20 08:52 34.555895 -119.472209 126 35085ft 461kts
02-Feb-20 08:53 34.482095 -119.347078 127 35086ft 462kts
02-Feb-20 08:53 34.419317 -119.240922 127 35080ft 460kts
02-Feb-20 08:55 34.331752 -119.093455 127 35081ft 460kts
02-Feb-20 08:56 34.256779 -118.967671 127 35089ft 459kts
02-Feb-20 08:56 34.194208 -118.863030 126 35065ft 457kts
02-Feb-20 08:58 34.107041 -118.717766 126 35064ft 457kts
02-Feb-20 08:58 34.045015 -118.614751 126 35060ft 457kts
02-Feb-20 08:59 33.970520 -118.491411 125 35058ft 455kts
02-Feb-20 09:00 33.889399 -118.374856 133 35057ft 455kts
02-Feb-20 09:01 33.803110 -118.263579 133 33261ft 465kts
02-Feb-20 09:02 33.716709 -118.150698 133 30218ft 454kts
02-Feb-20 09:03 33.634151 -118.042323 134 27812ft 429kts
02-Feb-20 09:04 33.555097 -117.938907 135 25529ft 408kts
02-Feb-20 09:05 33.475987 -117.846624 139 23339ft 390kts
02-Feb-20 09:06 33.398319 -117.760153 141 21216ft 373kts
02-Feb-20 09:07 33.322377 -117.679305 141 19154ft 359kts
02-Feb-20 09:08 33.247099 -117.599076 140 16994ft 363kts
02-Feb-20 09:09 33.173580 -117.521753 140 14941ft 344kts
02-Feb-20 09:10 33.100368 -117.452656 146 12974ft 328kts
02-Feb-20 09:11 33.027047 -117.391685 145 11083ft 317kts
02-Feb-20 09:12 32.959366 -117.334868 146 10276ft 280kts
02-Feb-20 09:13 32.898586 -117.284087 146 9405ft 263kts
02-Feb-20 09:14 32.838260 -117.233963 145 8165ft 262kts
02-Feb-20 09:15 32.800924 -117.162982 106 7012ft 256kts
02-Feb-20 09:16 32.783084 -117.083086 105 5878ft 229kts
02-Feb-20 09:17 32.760232 -117.016374 116 4997ft 216kts
02-Feb-20 09:18 32.736176 -116.955148 124 4559ft 194kts
02-Feb-20 09:19 32.692394 -116.958169 237 4001ft 190kts
02-Feb-20 09:20 32.689221 -117.018636 286 3996ft 189kts
02-Feb-20 09:21 32.707502 -117.078822 285 2648ft 197kts
02-Feb-20 09:22 32.721609 -117.140564 285 906ft 188kts
02-Feb-20 09:23 32.736371 -117.198642 300 732ft 158kts
02-Feb-20 09:24 32.764954 -117.182930 106 1349ft 183kts
02-Feb-20 09:25 32.744771 -117.131677 151 1381ft 156kts
02-Feb-20 09:26 32.726599 -117.161074 286 422ft 151kts
02-Feb-20 09:27 32.735339 -117.197134 273 26ft 22kts
02-Feb-20 09:28 32.735116 -117.200372 285 26ft 24kts
02-Feb-20 09:29 32.734518 -117.203413 231 24ft 0kts

Navigation Log

Ident Type
Flight plan parsing failed, navigation log unavailable